Time;durP1;ratioP1;P1;durP2;ratioP2;P2;SDS_P1;SDS_P2;PMS_P1;PMS_P2;Temp;Humidity;BMP_temperature;BMP_pressure;BME280_temperature;BME280_humidity;BME280_pressure;Samples;Min_cycle;Max_cycle;Signal;HPM_P1;HPM_P2
2022/05/30 00:00:17;;;;;;;4.00;1.97;;;10.40;99.90;;;;;;4984286;28;20828;-81
2022/05/30 00:03:10;;;;;;;3.60;1.70;;;10.40;99.90;;;;;;4980203;28;20496;-80
2022/05/30 00:06:14;;;;;;;5.60;2.37;;;10.40;99.90;;;;;;4977176;28;20457;-82
2022/05/30 00:09:08;;;;;;;6.73;2.47;;;10.50;99.90;;;;;;4984426;28;20805;-81
2022/05/30 00:12:03;;;;;;;4.03;2.87;;;10.40;99.90;;;;;;4986319;28;20491;-81
2022/05/30 00:14:55;;;;;;;5.33;2.20;;;10.50;99.90;;;;;;4980329;28;20489;-82
2022/05/30 00:17:46;;;;;;;5.20;2.30;;;10.50;99.90;;;;;;4983548;28;20473;-81
2022/05/30 00:20:36;;;;;;;7.83;2.40;;;10.50;99.90;;;;;;4986481;28;20458;-80
2022/05/30 00:23:25;;;;;;;4.07;2.00;;;10.50;99.90;;;;;;4991049;28;20951;-81
2022/05/30 00:26:17;;;;;;;8.20;3.03;;;10.50;99.90;;;;;;4992220;28;20544;-81
2022/05/30 00:29:10;;;;;;;3.70;1.90;;;10.50;99.90;;;;;;4996349;28;20516;-81
2022/05/30 00:32:05;;;;;;;4.90;2.00;;;10.50;99.90;;;;;;4997928;28;20497;-80
2022/05/30 00:35:03;;;;;;;4.10;2.00;;;10.50;99.90;;;;;;4983862;28;20581;-80
2022/05/30 00:37:53;;;;;;;7.30;1.90;;;10.40;99.90;;;;;;4989493;28;20484;-81
2022/05/30 00:40:42;;;;;;;4.73;2.10;;;10.50;99.90;;;;;;4990137;28;20555;-80
2022/05/30 00:43:35;;;;;;;2.90;1.73;;;10.50;99.90;;;;;;4987329;28;20908;-80
2022/05/30 00:46:28;;;;;;;6.80;2.10;;;10.40;99.90;;;;;;4984304;28;20453;-82
2022/05/30 00:49:23;;;;;;;9.10;2.20;;;10.40;99.90;;;;;;4984721;28;20468;-81
2022/05/30 00:52:24;;;;;;;5.60;2.27;;;10.40;99.90;;;;;;4990505;28;20482;-83
2022/05/30 00:55:30;;;;;;;6.70;2.37;;;10.40;99.90;;;;;;4993430;28;20451;-82
2022/05/30 00:58:25;;;;;;;3.50;1.87;;;10.40;99.90;;;;;;4984094;28;20539;-83
2022/05/30 01:01:17;;;;;;;6.10;1.80;;;10.40;99.90;;;;;;4982091;28;20442;-82
2022/05/30 01:07:30;;;;;;;4.47;2.40;;;10.40;99.90;;;;;;4990892;28;20995;-83
2022/05/30 01:10:22;;;;;;;6.03;1.90;;;10.40;99.90;;;;;;4982665;28;20478;-82
2022/05/30 01:13:13;;;;;;;7.07;2.10;;;10.40;99.90;;;;;;4981388;28;20509;-80
2022/05/30 01:16:05;;;;;;;5.03;2.50;;;10.40;99.90;;;;;;4979883;28;20459;-80
2022/05/30 01:19:03;;;;;;;6.07;2.10;;;10.50;99.90;;;;;;4971589;28;20469;-80
2022/05/30 01:22:37;;;;;;;5.47;2.70;;;10.40;99.90;;;;;;4977165;28;20473;-79
2022/05/30 01:26:21;;;;;;;4.00;1.90;;;10.40;99.90;;;;;;4982357;28;20461;-82
2022/05/30 01:29:22;;;;;;;4.27;2.30;;;10.40;99.90;;;;;;4918639;29;21051;-80
2022/05/30 01:32:22;;;;;;;4.67;2.13;;;10.40;99.90;;;;;;4917982;29;20487;-80
2022/05/30 01:35:24;;;;;;;7.67;2.10;;;10.30;99.90;;;;;;4983498;28;20542;-80
2022/05/30 01:38:16;;;;;;;5.47;2.10;;;10.40;99.90;;;;;;4986850;28;20495;-83
2022/05/30 01:41:10;;;;;;;6.37;2.33;;;10.30;99.90;;;;;;4984885;28;20454;-82
2022/05/30 01:44:00;;;;;;;3.83;2.10;;;10.30;99.90;;;;;;4996731;23;20550;-70
2022/05/30 01:46:49;;;;;;;5.10;2.37;;;10.30;99.90;;;;;;4979087;28;20653;-68
2022/05/30 01:49:37;;;;;;;5.27;2.27;;;10.30;99.90;;;;;;4985230;28;20460;-68
2022/05/30 01:52:28;;;;;;;3.67;2.33;;;10.30;99.90;;;;;;4982166;28;20478;-68
2022/05/30 01:55:16;;;;;;;4.30;2.60;;;10.30;99.90;;;;;;4967780;28;20482;-68
2022/05/30 01:58:05;;;;;;;6.80;2.53;;;10.30;99.90;;;;;;4971477;28;20574;-70
2022/05/30 02:00:55;;;;;;;8.60;2.37;;;10.30;99.90;;;;;;4959659;28;20464;-70
2022/05/30 02:03:44;;;;;;;5.17;2.27;;;10.30;99.90;;;;;;4966976;28;20565;-70
2022/05/30 02:06:34;;;;;;;4.27;2.40;;;10.30;99.90;;;;;;4965947;28;20480;-70
2022/05/30 02:09:23;;;;;;;5.33;2.70;;;10.30;99.90;;;;;;4965505;28;20576;-68
2022/05/30 02:12:11;;;;;;;5.53;2.57;;;10.40;99.90;;;;;;4969993;28;20462;-68
2022/05/30 02:15:00;;;;;;;3.03;2.20;;;10.40;99.90;;;;;;4967141;28;20467;-68
2022/05/30 02:17:47;;;;;;;3.67;2.60;;;10.40;99.90;;;;;;4970722;28;21088;-68
2022/05/30 02:20:39;;;;;;;5.10;2.40;;;10.30;99.90;;;;;;4968512;28;20521;-70
2022/05/30 02:23:27;;;;;;;4.07;2.30;;;10.30;99.90;;;;;;4966804;28;20518;-68
2022/05/30 02:26:15;;;;;;;2.30;2.00;;;10.30;99.90;;;;;;4954379;28;20564;-67
2022/05/30 02:29:05;;;;;;;5.63;2.60;;;10.30;99.90;;;;;;4968633;28;20604;-68
2022/05/30 02:31:53;;;;;;;4.63;2.27;;;10.20;99.90;;;;;;4963119;28;20482;-68
2022/05/30 02:37:49;;;;;;;5.30;2.03;;;10.20;99.90;;;;;;4958004;28;20631;-68
2022/05/30 02:40:37;;;;;;;4.30;1.87;;;10.20;99.90;;;;;;4966906;28;20462;-68
2022/05/30 02:43:25;;;;;;;4.83;1.70;;;10.10;99.90;;;;;;4964952;28;20490;-68
2022/05/30 02:46:14;;;;;;;3.90;1.90;;;10.20;99.90;;;;;;4955994;28;20458;-68
2022/05/30 02:49:03;;;;;;;5.20;2.07;;;10.20;99.90;;;;;;4963451;28;20549;-70
2022/05/30 02:51:51;;;;;;;3.67;2.00;;;10.10;99.90;;;;;;4961190;28;20985;-70
2022/05/30 02:54:41;;;;;;;4.50;2.10;;;10.10;99.90;;;;;;4964678;28;20450;-70
2022/05/30 02:57:29;;;;;;;2.97;1.90;;;10.20;99.90;;;;;;4957697;28;22004;-70
2022/05/30 03:00:18;;;;;;;6.43;1.90;;;10.10;99.90;;;;;;4957655;28;20481;-70
2022/05/30 03:03:06;;;;;;;4.50;1.93;;;10.10;99.90;;;;;;4961272;28;21286;-70
2022/05/30 03:05:55;;;;;;;5.40;1.70;;;10.00;99.90;;;;;;4965551;28;20884;-70
2022/05/30 03:08:43;;;;;;;5.37;2.07;;;10.10;99.90;;;;;;4955570;28;20548;-70
2022/05/30 03:11:33;;;;;;;5.13;1.93;;;10.10;99.90;;;;;;4970878;28;20978;-70
2022/05/30 03:14:21;;;;;;;6.30;2.70;;;10.10;99.90;;;;;;4959305;28;20475;-70
2022/05/30 03:17:09;;;;;;;4.93;2.10;;;10.10;99.90;;;;;;4971271;28;20885;-70
2022/05/30 03:19:57;;;;;;;3.50;2.10;;;10.00;99.90;;;;;;4962317;28;20458;-70
2022/05/30 03:22:46;;;;;;;8.00;2.80;;;10.00;99.90;;;;;;4955797;28;20577;-70
2022/05/30 03:25:34;;;;;;;5.23;2.10;;;10.00;99.90;;;;;;4959576;28;20611;-70
2022/05/30 03:28:24;;;;;;;5.13;1.83;;;10.00;99.90;;;;;;4953559;28;20458;-70
2022/05/30 03:31:13;;;;;;;4.33;2.07;;;10.00;99.90;;;;;;4960991;28;20524;-70
2022/05/30 03:34:01;;;;;;;3.33;2.17;;;10.00;99.90;;;;;;4958409;28;20474;-70
2022/05/30 03:36:49;;;;;;;5.63;2.10;;;9.90;99.90;;;;;;4961407;28;20588;-70
2022/05/30 03:39:37;;;;;;;3.77;2.10;;;10.00;99.90;;;;;;4963581;28;20486;-71
2022/05/30 03:42:25;;;;;;;4.43;2.23;;;10.00;99.90;;;;;;4962128;28;20478;-69
2022/05/30 03:45:15;;;;;;;6.00;2.20;;;10.00;99.90;;;;;;4958253;28;20489;-69
2022/05/30 03:48:03;;;;;;;2.83;1.67;;;10.00;99.90;;;;;;4964270;28;20960;-69
2022/05/30 03:50:51;;;;;;;5.53;2.40;;;10.10;99.90;;;;;;4963355;28;20486;-69
2022/05/30 03:53:40;;;;;;;3.80;2.00;;;10.10;99.90;;;;;;4969382;28;20483;-71
2022/05/30 03:56:28;;;;;;;10.13;2.40;;;10.10;99.90;;;;;;4962695;28;20619;-71
2022/05/30 03:59:16;;;;;;;3.20;1.73;;;10.10;99.90;;;;;;4946029;28;20483;-71
2022/05/30 04:02:06;;;;;;;4.97;2.10;;;10.10;99.90;;;;;;4963579;28;20462;-71
2022/05/30 04:04:55;;;;;;;3.80;2.10;;;10.10;99.90;;;;;;4972405;28;20536;-70
2022/05/30 04:07:43;;;;;;;4.90;2.13;;;10.10;99.90;;;;;;4959324;28;20498;-71
2022/05/30 04:10:31;;;;;;;3.57;2.03;;;10.00;99.90;;;;;;4965607;28;20451;-71
2022/05/30 04:13:19;;;;;;;3.23;2.50;;;10.10;99.90;;;;;;4964284;28;20592;-71
2022/05/30 04:16:09;;;;;;;3.50;2.00;;;10.10;99.90;;;;;;4960494;28;20462;-71
2022/05/30 04:19:01;;;;;;;2.30;2.00;;;10.10;99.90;;;;;;4960461;28;20564;-71
2022/05/30 04:21:49;;;;;;;5.70;2.50;;;10.10;99.90;;;;;;4952635;28;20489;-71
2022/05/30 04:24:37;;;;;;;4.70;2.10;;;10.10;99.90;;;;;;4959473;28;20454;-70
2022/05/30 04:27:26;;;;;;;3.60;2.00;;;10.10;99.90;;;;;;4953157;28;20501;-71
2022/05/30 04:30:14;;;;;;;2.90;1.70;;;10.10;99.90;;;;;;4956200;28;20462;-71
2022/05/30 04:33:02;;;;;;;4.37;2.20;;;10.10;99.90;;;;;;4962620;28;20525;-71
2022/05/30 04:35:52;;;;;;;7.40;2.47;;;10.20;99.90;;;;;;4963159;28;20532;-71
2022/05/30 04:38:40;;;;;;;5.43;2.50;;;10.20;99.90;;;;;;4967883;28;20501;-71
2022/05/30 04:41:28;;;;;;;4.53;2.20;;;10.20;99.90;;;;;;4967778;28;20457;-71
2022/05/30 04:44:17;;;;;;;5.90;2.50;;;10.20;99.90;;;;;;4958463;28;20529;-71
2022/05/30 04:47:07;;;;;;;5.30;2.53;;;10.30;99.90;;;;;;4964443;28;20560;-71
2022/05/30 04:49:55;;;;;;;6.37;2.50;;;10.30;99.90;;;;;;4953307;28;20848;-71
2022/05/30 04:52:46;;;;;;;5.23;2.20;;;10.30;99.90;;;;;;4952182;28;20600;-71
2022/05/30 04:55:35;;;;;;;8.20;3.33;;;10.30;99.90;;;;;;4950848;28;20455;-71
2022/05/30 04:58:25;;;;;;;5.63;3.00;;;10.30;99.90;;;;;;4953882;28;20943;-71
2022/05/30 05:01:13;;;;;;;5.07;2.63;;;10.40;99.90;;;;;;4937242;28;20453;-71
2022/05/30 05:04:01;;;;;;;3.63;2.50;;;10.50;99.90;;;;;;4959670;28;20856;-70
2022/05/30 05:06:50;;;;;;;6.50;3.13;;;10.50;99.90;;;;;;4965529;28;20458;-70
2022/05/30 05:09:50;;;;;;;4.80;2.60;;;10.50;99.90;;;;;;4963473;28;20562;-71
2022/05/30 05:12:39;;;;;;;7.60;2.47;;;10.50;99.90;;;;;;4958538;28;20476;-70
2022/05/30 05:15:27;;;;;;;7.00;2.67;;;10.50;99.90;;;;;;4970432;28;20573;-71
2022/05/30 05:18:15;;;;;;;4.83;2.40;;;10.50;99.90;;;;;;4975350;28;20467;-71
2022/05/30 05:21:04;;;;;;;6.10;3.27;;;10.60;99.90;;;;;;4965996;28;21029;-72
2022/05/30 05:23:52;;;;;;;4.63;2.60;;;10.60;99.90;;;;;;4955289;28;21088;-71
2022/05/30 05:26:45;;;;;;;3.00;2.30;;;10.60;99.90;;;;;;4953415;28;20465;-71
2022/05/30 05:29:34;;;;;;;6.47;2.70;;;10.60;99.90;;;;;;4950690;28;20491;-71
2022/05/30 05:32:22;;;;;;;4.33;2.53;;;10.80;99.90;;;;;;4960275;28;20466;-71
2022/05/30 05:35:10;;;;;;;5.10;2.63;;;10.70;99.90;;;;;;4952092;28;20537;-71
2022/05/30 05:38:00;;;;;;;8.27;2.90;;;10.70;99.90;;;;;;4972244;28;20976;-71
2022/05/30 05:40:48;;;;;;;6.70;2.97;;;10.80;99.90;;;;;;4953049;28;20556;-71
2022/05/30 05:43:37;;;;;;;5.10;3.00;;;10.70;99.90;;;;;;4952450;28;20868;-71
2022/05/30 05:46:29;;;;;;;4.90;3.07;;;10.70;99.90;;;;;;4949960;28;21161;-72
2022/05/30 05:49:17;;;;;;;7.63;2.97;;;10.80;99.90;;;;;;4951796;28;20457;-71
2022/05/30 05:52:06;;;;;;;6.20;2.73;;;10.80;99.90;;;;;;4965423;28;20462;-71
2022/05/30 05:54:55;;;;;;;4.13;2.80;;;10.80;99.90;;;;;;4965393;28;20462;-71
2022/05/30 05:57:43;;;;;;;5.00;2.93;;;10.70;99.90;;;;;;4959314;28;21307;-71
2022/05/30 06:00:33;;;;;;;5.80;2.80;;;10.80;99.90;;;;;;4959703;28;20581;-71
2022/05/30 06:03:21;;;;;;;3.23;2.57;;;10.80;99.90;;;;;;4957597;28;20510;-72
2022/05/30 06:06:09;;;;;;;4.60;2.63;;;11.00;99.90;;;;;;4961086;28;20461;-72
2022/05/30 06:08:59;;;;;;;4.33;2.93;;;11.00;99.90;;;;;;4967805;28;20454;-71
2022/05/30 06:11:47;;;;;;;4.23;2.83;;;11.00;99.90;;;;;;4958707;28;20953;-72
2022/05/30 06:14:36;;;;;;;4.30;2.60;;;11.00;99.90;;;;;;4966603;28;20458;-71
2022/05/30 06:17:25;;;;;;;5.00;2.57;;;11.00;99.90;;;;;;4969119;28;20561;-71
2022/05/30 06:20:16;;;;;;;4.80;2.33;;;11.00;99.90;;;;;;4962077;28;20939;-71
2022/05/30 06:23:05;;;;;;;3.67;2.10;;;11.00;99.90;;;;;;4963605;28;20474;-71
2022/05/30 06:25:53;;;;;;;4.50;2.40;;;11.00;99.90;;;;;;4964888;28;20533;-71
2022/05/30 06:28:42;;;;;;;4.17;2.67;;;11.10;99.90;;;;;;4964107;28;20550;-71
2022/05/30 06:31:32;;;;;;;4.67;2.87;;;11.10;99.90;;;;;;4960562;28;21016;-71
2022/05/30 06:34:21;;;;;;;8.40;2.90;;;11.10;99.90;;;;;;4957624;28;20504;-71
2022/05/30 06:37:10;;;;;;;3.73;2.67;;;11.10;99.90;;;;;;4963926;28;20462;-71
2022/05/30 06:39:58;;;;;;;3.50;2.00;;;11.10;99.90;;;;;;4957972;28;20486;-71
2022/05/30 06:42:47;;;;;;;4.43;2.97;;;11.20;99.90;;;;;;4962607;28;20497;-71
2022/05/30 06:45:36;;;;;;;3.13;2.67;;;11.30;99.90;;;;;;4965963;28;20529;-71
2022/05/30 06:48:25;;;;;;;5.10;2.77;;;11.30;99.90;;;;;;4955768;28;23217;-71
2022/05/30 06:51:19;;;;;;;4.43;2.70;;;11.40;99.90;;;;;;4961745;28;20450;-71
2022/05/30 06:54:08;;;;;;;5.67;2.90;;;11.30;99.90;;;;;;4968942;28;21087;-72
2022/05/30 07:00:02;;;;;;;4.50;2.53;;;11.20;99.90;;;;;;4969791;28;20493;-71
2022/05/30 07:02:51;;;;;;;4.60;2.57;;;11.30;99.90;;;;;;4962614;28;20521;-71
2022/05/30 07:05:40;;;;;;;3.20;2.30;;;11.30;99.90;;;;;;4964154;28;21085;-71
2022/05/30 07:08:29;;;;;;;3.57;2.37;;;11.20;99.90;;;;;;4958347;28;20554;-71
2022/05/30 07:11:20;;;;;;;2.67;2.20;;;11.10;99.90;;;;;;4958989;28;20483;-71
2022/05/30 07:14:10;;;;;;;4.17;2.53;;;11.20;99.90;;;;;;4965782;28;20620;-71
2022/05/30 07:16:59;;;;;;;4.13;2.30;;;11.20;99.90;;;;;;4962307;28;20558;-71
2022/05/30 07:19:47;;;;;;;3.73;2.40;;;11.20;99.90;;;;;;4970147;28;20570;-71
2022/05/30 07:22:35;;;;;;;2.37;2.03;;;11.30;99.90;;;;;;4963477;28;20482;-71
2022/05/30 07:25:25;;;;;;;4.00;2.50;;;11.40;99.90;;;;;;4966079;28;20451;-71
2022/05/30 07:28:13;;;;;;;3.90;2.20;;;11.40;99.90;;;;;;4962498;28;20811;-71
2022/05/30 07:31:06;;;;;;;4.90;2.40;;;11.30;99.90;;;;;;4964764;28;20450;-71
2022/05/30 07:33:54;;;;;;;2.73;1.70;;;11.40;99.90;;;;;;4963030;28;20478;-71
2022/05/30 07:36:43;;;;;;;4.00;1.97;;;11.30;99.90;;;;;;4961354;28;20551;-71
2022/05/30 07:39:31;;;;;;;4.63;1.97;;;11.30;99.90;;;;;;4961238;28;20493;-71
2022/05/30 07:42:20;;;;;;;3.00;2.00;;;11.20;99.90;;;;;;4961440;28;20451;-71
2022/05/30 07:45:10;;;;;;;4.20;2.73;;;11.30;99.90;;;;;;4993336;23;20763;-85
2022/05/30 07:48:00;;;;;;;5.63;2.47;;;11.30;99.90;;;;;;4987318;28;20943;-81
2022/05/30 07:50:48;;;;;;;4.70;2.43;;;11.40;99.90;;;;;;4986568;28;20541;-83
2022/05/30 07:53:38;;;;;;;2.30;1.93;;;11.40;99.90;;;;;;4979432;28;20519;-82
2022/05/30 07:56:27;;;;;;;5.07;2.60;;;11.40;99.90;;;;;;4982797;28;20510;-82
2022/05/30 07:59:20;;;;;;;3.00;2.20;;;11.40;99.90;;;;;;4986983;28;20572;-81
2022/05/30 08:02:09;;;;;;;4.73;2.60;;;11.50;99.90;;;;;;4992586;28;20797;-84
2022/05/30 08:04:57;;;;;;;3.97;2.37;;;11.40;99.90;;;;;;4984248;28;20470;-83
2022/05/30 08:07:46;;;;;;;3.10;2.50;;;11.30;99.90;;;;;;4977921;28;20914;-83
2022/05/30 08:10:34;;;;;;;2.50;2.30;;;11.20;99.90;;;;;;4980367;28;20565;-83
2022/05/30 08:13:22;;;;;;;4.10;2.67;;;11.10;99.90;;;;;;4975801;28;21203;-83
2022/05/30 08:16:16;;;;;;;3.33;2.53;;;11.10;99.90;;;;;;4975435;28;20504;-82
2022/05/30 08:19:28;;;;;;;4.30;2.40;;;11.20;99.90;;;;;;4977646;28;20924;-83
2022/05/30 08:22:36;;;;;;;5.13;2.30;;;11.20;99.90;;;;;;4977453;28;20801;-83
2022/05/30 08:25:25;;;;;;;3.33;2.20;;;11.10;99.90;;;;;;4982444;28;20544;-87
2022/05/30 08:28:13;;;;;;;3.67;2.40;;;11.10;99.90;;;;;;4991125;28;20457;-85
2022/05/30 08:31:04;;;;;;;2.60;2.00;;;11.00;99.90;;;;;;4985128;28;20937;-81
2022/05/30 08:33:54;;;;;;;3.33;2.00;;;11.20;99.90;;;;;;4985773;28;20478;-84
2022/05/30 08:36:43;;;;;;;3.60;2.20;;;11.30;99.90;;;;;;4986152;28;20473;-82
2022/05/30 08:42:37;;;;;;;3.90;2.07;;;11.40;99.90;;;;;;4977358;28;20533;-84
2022/05/30 08:45:26;;;;;;;3.13;1.97;;;11.50;99.90;;;;;;4977315;28;21232;-82
2022/05/30 08:48:16;;;;;;;4.03;2.57;;;11.50;99.90;;;;;;4974053;28;20495;-83
2022/05/30 08:51:17;;;;;;;3.00;2.10;;;11.50;99.90;;;;;;4984077;28;20458;-82
2022/05/30 08:54:32;;;;;;;4.57;2.40;;;11.60;99.90;;;;;;4988884;28;20767;-84
2022/05/30 08:57:30;;;;;;;5.70;2.37;;;11.70;99.90;;;;;;4983077;28;20495;-85
2022/05/30 09:00:24;;;;;;;3.23;2.93;;;11.80;99.90;;;;;;4985138;28;20637;-86
2022/05/30 09:03:18;;;;;;;3.00;2.80;;;11.80;99.90;;;;;;4981093;28;20923;-84
2022/05/30 09:06:17;;;;;;;3.50;3.20;;;11.80;99.90;;;;;;4985785;28;20458;-83
2022/05/30 09:09:14;;;;;;;3.87;2.60;;;11.90;99.90;;;;;;4975472;28;20538;-85
2022/05/30 09:12:06;;;;;;;3.27;2.40;;;12.00;99.90;;;;;;4977690;28;20546;-86
2022/05/30 09:14:59;;;;;;;2.40;2.17;;;12.00;99.90;;;;;;4972355;28;20538;-83
2022/05/30 09:17:51;;;;;;;4.93;2.57;;;12.10;99.90;;;;;;4979832;28;20522;-84
2022/05/30 09:20:41;;;;;;;5.70;3.27;;;12.10;99.90;;;;;;4981165;28;20481;-84
2022/05/30 09:23:31;;;;;;;4.00;2.50;;;12.10;99.90;;;;;;4979932;28;20480;-84
2022/05/30 09:26:23;;;;;;;2.90;2.30;;;12.20;99.90;;;;;;4986707;28;20547;-84
2022/05/30 09:29:16;;;;;;;2.00;1.80;;;12.30;99.90;;;;;;4978121;28;20481;-85
2022/05/30 09:32:15;;;;;;;3.33;2.37;;;12.20;99.90;;;;;;4979597;28;20498;-81
2022/05/30 09:35:27;;;;;;;2.73;1.60;;;12.10;99.90;;;;;;4978152;28;20474;-82
2022/05/30 09:38:20;;;;;;;2.77;1.73;;;12.10;99.90;;;;;;4980796;28;20605;-81
2022/05/30 09:41:14;;;;;;;2.03;1.77;;;12.00;99.90;;;;;;4983008;28;20485;-81
2022/05/30 09:44:05;;;;;;;2.17;1.97;;;11.90;99.90;;;;;;4983368;28;20512;-81
2022/05/30 09:46:56;;;;;;;3.17;1.87;;;11.90;99.90;;;;;;4987854;28;20941;-81
2022/05/30 09:49:47;;;;;;;6.13;2.13;;;11.90;99.90;;;;;;4980909;28;20453;-82
2022/05/30 09:52:38;;;;;;;3.53;2.03;;;11.90;99.90;;;;;;4981697;28;20533;-86
2022/05/30 09:55:33;;;;;;;2.73;1.80;;;12.00;99.90;;;;;;4985061;28;20532;-82
2022/05/30 09:58:46;;;;;;;4.57;1.90;;;11.90;99.90;;;;;;4988342;28;20473;-82
2022/05/30 10:01:37;;;;;;;3.57;1.73;;;11.90;99.90;;;;;;4982793;28;20556;-82
2022/05/30 10:04:37;;;;;;;2.83;1.83;;;11.90;99.90;;;;;;4983287;28;20477;-81
2022/05/30 10:07:26;;;;;;;2.40;1.63;;;11.90;99.90;;;;;;4976817;28;20442;-86
2022/05/30 10:10:20;;;;;;;1.33;1.23;;;11.90;99.90;;;;;;4979870;28;20472;-82
2022/05/30 10:13:11;;;;;;;2.80;1.50;;;12.00;99.90;;;;;;4978477;28;20461;-82
2022/05/30 10:16:01;;;;;;;2.77;1.00;;;12.00;99.90;;;;;;4977081;28;20919;-80
2022/05/30 10:18:55;;;;;;;2.10;1.00;;;12.10;99.90;;;;;;4979926;28;20472;-81
2022/05/30 10:28:43;;;;;;;0.70;0.70;;;12.20;99.90;;;;;;4980116;28;20551;-81
2022/05/30 10:31:44;;;;;;;0.67;0.67;;;12.30;99.90;;;;;;4983176;28;20511;-81
2022/05/30 10:35:05;;;;;;;1.20;0.70;;;12.30;99.90;;;;;;4983016;28;20562;-82
2022/05/30 10:38:13;;;;;;;2.00;0.87;;;12.40;99.90;;;;;;4982503;28;21005;-81
2022/05/30 10:41:08;;;;;;;1.00;0.90;;;12.50;99.90;;;;;;4985005;28;20773;-81
2022/05/30 10:44:06;;;;;;;1.17;1.00;;;12.60;99.90;;;;;;4978291;28;20474;-82
2022/05/30 10:47:03;;;;;;;1.13;0.90;;;12.70;99.90;;;;;;4982087;28;20548;-81
2022/05/30 10:50:04;;;;;;;1.43;1.07;;;12.80;99.90;;;;;;4976338;28;20544;-81
2022/05/30 10:52:59;;;;;;;1.10;1.03;;;12.90;99.90;;;;;;4986909;28;20473;-81
2022/05/30 10:55:52;;;;;;;0.90;0.90;;;13.00;99.90;;;;;;4982163;28;20473;-80
2022/05/30 10:58:45;;;;;;;1.90;1.00;;;13.10;99.90;;;;;;4980107;28;20462;-83
2022/05/30 11:01:40;;;;;;;0.80;0.80;;;13.10;99.90;;;;;;4974826;28;20481;-82
2022/05/30 11:04:41;;;;;;;0.60;0.60;;;13.20;99.90;;;;;;4989150;28;20477;-82
2022/05/30 11:07:53;;;;;;;1.17;0.80;;;13.30;99.90;;;;;;4977795;28;20827;-82
2022/05/30 11:10:47;;;;;;;2.13;0.57;;;13.30;99.90;;;;;;4977309;28;20512;-82
2022/05/30 11:13:43;;;;;;;1.13;1.03;;;13.40;99.90;;;;;;4980302;28;20522;-82
2022/05/30 11:16:40;;;;;;;0.90;0.90;;;13.50;99.90;;;;;;4984419;28;20540;-82
2022/05/30 11:19:35;;;;;;;1.00;0.90;;;13.60;99.90;;;;;;4982383;28;20453;-82
2022/05/30 11:22:33;;;;;;;1.07;0.97;;;13.60;99.90;;;;;;4979038;28;20484;-83
2022/05/30 11:25:30;;;;;;;1.23;0.90;;;13.60;99.90;;;;;;4977269;28;20481;-82
2022/05/30 11:28:29;;;;;;;1.00;0.90;;;13.70;99.90;;;;;;4977933;28;20473;-82
2022/05/30 11:31:28;;;;;;;2.40;0.90;;;13.80;99.90;;;;;;4984974;28;20464;-82
2022/05/30 11:34:35;;;;;;;0.90;0.80;;;13.90;99.90;;;;;;4977108;28;20473;-81
2022/05/30 11:37:46;;;;;;;0.90;0.90;;;14.10;99.90;;;;;;4976935;28;20457;-82
2022/05/30 11:40:40;;;;;;;1.30;1.00;;;14.10;99.90;;;;;;4984560;28;20442;-81
2022/05/30 11:43:43;;;;;;;1.63;1.00;;;14.00;99.90;;;;;;4999057;28;20465;-82
2022/05/30 11:46:40;;;;;;;0.87;0.87;;;14.00;99.90;;;;;;4985490;28;20453;-84
2022/05/30 11:49:34;;;;;;;1.10;0.80;;;14.00;99.90;;;;;;4980139;28;20813;-82
2022/05/30 11:52:34;;;;;;;0.83;0.70;;;13.90;99.90;;;;;;4979939;28;20543;-82
2022/05/30 11:55:26;;;;;;;0.90;0.80;;;13.80;99.90;;;;;;4976055;28;20528;-82
2022/05/30 11:58:25;;;;;;;1.90;1.00;;;13.80;99.90;;;;;;4984120;28;20496;-82
2022/05/30 12:01:16;;;;;;;1.97;1.00;;;13.70;99.90;;;;;;4978818;28;20456;-82
2022/05/30 12:04:41;;;;;;;2.90;1.13;;;13.70;99.90;;;;;;4978862;28;20548;-82
2022/05/30 12:07:54;;;;;;;2.13;1.87;;;13.60;99.90;;;;;;4983147;28;20445;-82
2022/05/30 12:11:00;;;;;;;2.43;1.70;;;13.60;99.90;;;;;;4981897;28;20553;-82
2022/05/30 12:14:06;;;;;;;1.97;1.77;;;13.50;99.90;;;;;;4977935;28;20570;-83
2022/05/30 12:17:12;;;;;;;3.53;1.40;;;13.40;99.90;;;;;;4972521;28;20752;-82
2022/05/30 12:26:56;;;;;;;1.23;1.00;;;13.20;99.90;;;;;;4975105;28;20517;-82
2022/05/30 12:29:49;;;;;;;1.03;1.03;;;13.20;99.90;;;;;;4980019;28;20463;-82
2022/05/30 12:32:41;;;;;;;1.70;1.30;;;13.20;99.90;;;;;;4981311;28;20978;-83
2022/05/30 12:35:31;;;;;;;2.50;1.83;;;13.30;99.90;;;;;;4977778;28;20497;-83
2022/05/30 12:38:21;;;;;;;2.90;2.03;;;13.30;99.90;;;;;;4981702;28;20834;-82
2022/05/30 12:41:26;;;;;;;2.80;2.60;;;13.40;99.90;;;;;;4973245;28;20459;-83
2022/05/30 12:44:24;;;;;;;3.23;2.37;;;13.50;99.90;;;;;;4970103;28;20488;-82
2022/05/30 12:47:17;;;;;;;2.60;2.40;;;13.60;99.90;;;;;;4977523;28;20468;-82
2022/05/30 12:50:36;;;;;;;2.60;2.40;;;13.70;99.90;;;;;;4983045;28;20454;-82
2022/05/30 12:54:02;;;;;;;3.17;2.87;;;13.80;99.90;;;;;;4982889;28;20468;-81
2022/05/30 12:57:38;;;;;;;3.73;2.80;;;13.90;99.90;;;;;;4980527;28;20587;-81
2022/05/30 13:01:07;;;;;;;3.63;3.17;;;14.00;99.90;;;;;;4974391;28;21644;-82
2022/05/30 13:04:06;;;;;;;3.70;2.70;;;14.20;99.90;;;;;;4980113;28;20476;-82
2022/05/30 13:07:10;;;;;;;3.03;2.73;;;14.40;99.90;;;;;;4984130;28;20803;-82
2022/05/30 13:10:09;;;;;;;3.53;2.87;;;14.60;99.90;;;;;;4987109;28;20484;-82
2022/05/30 13:13:05;;;;;;;2.90;2.60;;;14.60;99.90;;;;;;4982290;28;20554;-81
2022/05/30 13:16:04;;;;;;;2.70;2.50;;;14.60;99.90;;;;;;4976605;28;20465;-82
2022/05/30 13:18:52;;;;;;;4.90;2.73;;;14.70;99.90;;;;;;4984812;28;20832;-82
2022/05/30 13:21:43;;;;;;;2.60;2.40;;;14.70;99.90;;;;;;4979699;28;20453;-83
2022/05/30 13:24:34;;;;;;;2.63;2.37;;;14.70;99.90;;;;;;4983095;28;20487;-83
2022/05/30 13:27:22;;;;;;;1.70;1.57;;;14.70;99.90;;;;;;4978868;28;20454;-83
2022/05/30 13:30:16;;;;;;;2.40;1.77;;;14.70;99.90;;;;;;4978754;28;20453;-83
2022/05/30 13:33:13;;;;;;;2.13;1.60;;;14.60;99.90;;;;;;4980166;28;20453;-83
2022/05/30 13:36:04;;;;;;;1.37;1.27;;;14.60;99.90;;;;;;4976879;28;20451;-83
2022/05/30 13:38:56;;;;;;;1.30;1.10;;;14.50;99.90;;;;;;4974768;28;20457;-83
2022/05/30 13:41:44;;;;;;;2.20;1.27;;;14.50;99.90;;;;;;4986233;28;20557;-81
2022/05/30 13:44:50;;;;;;;0.97;0.90;;;14.60;99.90;;;;;;5006387;23;21300;-68
2022/05/30 13:47:41;;;;;;;1.20;1.10;;;14.60;99.90;;;;;;4979196;28;20457;-68
2022/05/30 13:50:44;;;;;;;2.77;1.27;;;14.60;99.90;;;;;;4976557;28;20916;-68
2022/05/30 13:53:36;;;;;;;1.00;0.90;;;14.60;99.90;;;;;;4973153;28;20451;-68
2022/05/30 13:56:26;;;;;;;0.80;0.80;;;14.50;99.90;;;;;;4962519;28;20454;-68
2022/05/30 13:59:25;;;;;;;2.63;1.30;;;14.40;99.90;;;;;;4956308;28;20504;-68
2022/05/30 14:02:17;;;;;;;1.80;1.23;;;14.40;99.90;;;;;;4954237;28;20458;-68
2022/05/30 14:05:09;;;;;;;2.30;1.30;;;14.40;99.90;;;;;;4956424;28;20863;-70
2022/05/30 14:08:01;;;;;;;1.00;1.00;;;14.50;99.90;;;;;;4956111;28;20564;-68
2022/05/30 14:10:50;;;;;;;1.67;1.30;;;14.50;99.90;;;;;;4952677;28;20469;-68
2022/05/30 14:13:52;;;;;;;0.80;0.80;;;14.50;99.90;;;;;;4956777;28;20451;-70
2022/05/30 14:16:42;;;;;;;1.13;1.00;;;14.40;99.90;;;;;;4966299;28;20454;-70
2022/05/30 14:19:34;;;;;;;1.37;1.07;;;14.40;99.90;;;;;;4962200;28;20466;-68
2022/05/30 14:22:25;;;;;;;1.60;0.90;;;14.40;99.90;;;;;;4967183;28;20469;-68
2022/05/30 14:25:24;;;;;;;1.03;1.03;;;14.40;99.90;;;;;;4957164;28;20485;-68
2022/05/30 14:28:14;;;;;;;1.43;1.30;;;14.40;99.90;;;;;;4968203;28;20485;-68
2022/05/30 14:31:13;;;;;;;1.60;1.30;;;14.30;99.90;;;;;;4961428;28;20458;-69
2022/05/30 14:34:11;;;;;;;2.83;1.00;;;14.20;99.90;;;;;;4971792;28;20581;-68
2022/05/30 14:37:00;;;;;;;2.10;1.20;;;14.30;99.90;;;;;;4964472;28;21068;-68
2022/05/30 14:39:51;;;;;;;1.07;0.97;;;14.20;99.90;;;;;;4972582;28;20458;-68
2022/05/30 14:42:48;;;;;;;1.63;1.10;;;14.30;99.90;;;;;;4961607;28;20454;-68
2022/05/30 14:45:43;;;;;;;1.03;1.03;;;14.20;99.90;;;;;;4960945;28;21091;-68
2022/05/30 14:48:32;;;;;;;1.77;1.30;;;14.10;99.90;;;;;;4966666;28;20870;-68
2022/05/30 14:51:30;;;;;;;1.20;1.10;;;14.00;99.90;;;;;;4958495;28;20834;-68
2022/05/30 14:54:27;;;;;;;1.47;1.20;;;14.00;99.90;;;;;;4964689;28;20470;-68
2022/05/30 14:57:19;;;;;;;2.20;1.07;;;13.90;99.90;;;;;;4964978;28;20458;-68
2022/05/30 15:00:37;;;;;;;1.00;1.00;;;13.90;99.90;;;;;;4961842;28;20923;-68
2022/05/30 15:06:40;;;;;;;1.50;0.90;;;13.80;99.90;;;;;;4957943;28;21009;-68
2022/05/30 15:09:29;;;;;;;1.70;0.80;;;13.80;99.90;;;;;;4965316;28;20489;-69
2022/05/30 15:12:18;;;;;;;1.03;0.80;;;13.80;99.90;;;;;;4964827;28;20516;-68
2022/05/30 15:15:07;;;;;;;0.70;0.70;;;13.80;99.90;;;;;;4963687;28;20559;-69
2022/05/30 15:17:57;;;;;;;1.20;1.10;;;13.80;99.90;;;;;;4963239;28;20545;-68
2022/05/30 15:20:45;;;;;;;1.17;1.07;;;13.90;99.90;;;;;;4964968;28;20482;-68
2022/05/30 15:23:33;;;;;;;0.90;0.90;;;13.90;99.90;;;;;;4966053;28;20485;-69
2022/05/30 15:26:23;;;;;;;1.03;0.93;;;13.90;99.90;;;;;;4969612;28;20482;-68
2022/05/30 15:29:13;;;;;;;0.80;0.80;;;13.90;99.90;;;;;;4966381;28;20459;-69
2022/05/30 15:32:04;;;;;;;1.30;0.73;;;13.90;99.90;;;;;;4965468;28;20541;-68